x

South Kodiak - 310nm Ssw Of Kodiak, Ak (46066) Wave Buoy

5:50am - Mon 22nd Sep 2014 All times are UTC.

  • Sig Wave height 3.9ft
  • Swell Direction
  • Peak Period 15s
  • Average Period 5s
  • Wind
    13mph, 18mph gusts
  • Sea Temp 56°f
  • Air Temp 54°f
  • Sea Pressure 1002.4mb

More Historic Weather Station data

Upgrade to MSW Pro to gain access to the past 30 days of data for over 8000 Wavebouys and Weather Stations around the globe.

Join Pro

Comparision Forecast

View Surf forecast
   
Mon 09/22 5:50am 4ft 15s 5s 13 18 mph 1002.4mb 56f 54f
4:50am 4.5ft 15s 6s 13 16 mph 1002.1mb 56f 54f
3:50am 4ft 15s 5s 13 16 mph 1001.9mb 56f 54f
2:50am 4ft 15s 5s 13 16 mph 1001.8mb 56f 54f
1:50am 4ft 12s 5s 13 16 mph 1001.9mb 56f 55f
12:50am 4ft 15s 6s 13 16 mph 1002mb 56f 55f
Sun 09/21 11:50pm 4ft 7s 6s 13 16 mph 1002.1mb 56f 55f
10:50pm 4.5ft 8s 6s 11 13 mph 1002.3mb 56f 54f
9:50pm 4.5ft 7s 6s 11
mph
1002.4mb 56f 54f
8:50pm 4.5ft 8s 6s 11 13 mph 1002.5mb 56f 54f
7:50pm 4.5ft 8s 6s 9 13 mph 1002.6mb 56f 54f
6:50pm 4.5ft 8s 6s 11 13 mph 1002.7mb 56f 54f
5:50pm 4.5ft 8s 7s 13 18 mph 1002.6mb 56f 54f
4:50pm 4.5ft 8s 7s 7 9 mph 1002.5mb 56f 53f
3:50pm 4.5ft 8s 7s 9 11 mph 1002.3mb 56f 53f
2:50pm 4.5ft 8s 6s 13 16 mph 1002.2mb 56f 52f
1:50pm 4.5ft 15s 7s 11 13 mph 1002.3mb 56f 53f
12:50pm 4.5ft 8s 6s 9 11 mph 1002.5mb 56f 53f
11:50am 4.5ft 12s 6s 9 11 mph 1002.6mb 56f 53f
10:50am 4.5ft 15s 6s 9 11 mph 1002.7mb 56f 53f
9:50am 4.5ft 8s 6s 9 11 mph 1002.9mb 56f 53f
8:50am 5ft 8s 6s 7
mph
1003mb 56f 53f
7:50am 5ft 8s 7s 7
mph
1003.1mb 56f 53f
6:50am 5ft 8s 7s 4 7 mph 1003.2mb 56f 53f
5:50am 6ft 9s 7s 7 9 mph 1003.1mb 56f 53f
4:50am 6ft 9s 7s 9 11 mph 1002.9mb 56f 54f
3:50am 6ft 9s 7s 13 16 mph 1002.6mb 56f 53f
2:50am 6.5ft 9s 7s 11 16 mph 1002.6mb 56f 54f
1:50am 6ft 9s 7s 11 13 mph 1002.7mb 56f 55f
12:50am 6ft 9s 7s 11 13 mph 1002.7mb 56f 54f
Sat 09/20 11:50pm 5ft 9s 7s 11 13 mph 1002.8mb 57f 55f
10:50pm 5.5ft 9s 7s 4 7 mph 1002.9mb 56f 54f
9:50pm 5ft 9s 7s 4 7 mph 1003mb 56f 54f
8:50pm 6ft 9s 7s 9 11 mph 1002.8mb 56f 53f
7:50pm 6.5ft 9s 7s 9 11 mph 1002.9mb 56f 52f
6:50pm 6ft 9s 7s 7 9 mph 1002.7mb 56f 54f
5:50pm 5.5ft 9s 7s 7 11 mph 1002.5mb 56f 53f
4:50pm 6ft 10s 8s 11 16 mph 1002.4mb 56f 54f
3:50pm 6ft 10s 8s 7 11 mph 1002.2mb 56f 54f
2:50pm 6ft 10s 8s 9 11 mph 1002.1mb 56f 54f
1:50pm 5ft 9s 7s 2 4 mph 1002.1mb 56f 53f
12:50pm 5ft 10s 7s 11 13 mph 1002.1mb 56f 54f
11:50am 5ft 9s 7s 9 11 mph 1002.2mb 56f 53f
10:50am 4.5ft 7s 7s 9 11 mph 1002.2mb 56f 54f
9:50am 4.5ft 8s 7s 9 11 mph 1002.3mb 56f 54f
8:50am 5ft 7s 6s 11 13 mph 1002.4mb 56f 54f
7:50am 6ft 8s 7s 9 11 mph 1002.4mb 56f 54f
6:50am 6ft 8s 7s 11 13 mph 1002.2mb 56f 54f
5:50am 6.5ft 9s 7s 9 11 mph 1001.9mb 56f 54f
4:50am 6.5ft 8s 7s 7 11 mph 1001.4mb 56f 54f
3:50am 6ft 9s 7s 9 11 mph 1000.8mb 56f 54f
2:50am 6ft 9s 7s 9 11 mph 1000.4mb 56f 54f
1:50am 6ft 9s 7s 9 11 mph 1000.3mb 56f 54f
12:50am 6ft 10s 7s 9 11 mph 1000.2mb 56f 54f
Fri 09/19 11:50pm 6ft 10s 7s 9 11 mph 1000.1mb 56f 54f
10:50pm 6ft 10s 7s 9 11 mph 1000.2mb 56f 54f
8:50pm 6ft 10s 7s 9 11 mph 999.7mb 56f 54f
7:50pm 7ft 8s 7s 9 11 mph 999.5mb 56f 54f
6:50pm 7ft 9s 7s 9 13 mph 999.2mb 56f 54f
5:50pm 8ft 9s 7s 11 13 mph 998.9mb 56f 53f
4:50pm 8ft 9s 7s 9 11 mph 998.4mb 56f 53f
3:50pm 8ft 9s 7s 11 16 mph 998.2mb 56f 53f
2:50pm 8.5ft 10s 7s 16 20 mph 997.8mb 56f 54f
1:50pm 8ft 8s 7s 16 18 mph 997.7mb 56f 54f
12:50pm 9ft 11s 7s 18 22 mph 997.5mb 56f 54f
11:50am 8.5ft 12s 7s 16 20 mph 997.5mb 56f 54f
10:50am 8ft 11s 7s 18 20 mph 997.4mb 56f 54f
9:50am 9ft 11s 7s 18 20 mph 997.3mb 56f 54f
8:50am 8ft 11s 7s 18 22 mph 997.1mb 56f 54f
7:50am 10ft 10s 7s 20 25 mph 996.6mb 56f 54f
6:50am 9.5ft 11s 7s 16 20 mph 996.3mb 56f 55f
5:50am 11.5ft 9s 8s 20 22 mph 995.8mb 56f 55f
4:50am 11ft 11s 7s 20 27 mph 995.2mb 56f 55f
3:50am 11ft 11s 7s 20 25 mph 994.7mb 56f 55f
2:50am 11ft 11s 7s 22 27 mph 994.1mb 56f 55f
1:50am 12ft 11s 7s 20 27 mph 993.5mb 56f 54f
12:50am 12.5ft 11s 7s 22 25 mph 993.5mb 56f 54f
Thu 09/18 11:50pm 12ft 10s 7s 25 29 mph 993.3mb 56f 55f
10:50pm 13ft 11s 7s 25 29 mph 993mb 56f 55f
9:50pm 12.5ft 10s 7s 25 29 mph 992.8mb 56f 55f
8:50pm 12ft 10s 7s 25 29 mph 992.4mb 56f 55f
7:50pm 12ft 10s 7s 22 29 mph 991.8mb 56f 55f
6:50pm 12ft 9s 7s 25 29 mph 991.5mb 56f 54f
5:50pm 13.5ft 9s 7s 22 29 mph 991mb 56f 54f
4:50pm 12.5ft 10s 7s 25 31 mph 990.3mb 56f 55f
3:50pm 12ft 9s 7s 27 34 mph 989.8mb 56f 55f
2:50pm 11.5ft 8s 7s 25 31 mph 989.5mb 56f 53f
1:50pm 10.5ft 9s 7s 27 34 mph 988.9mb 56f 55f
12:50pm 10ft 7s 6s 27 34 mph 988.3mb 56f 55f
11:50am 8.5ft 9s 6s 27 34 mph 987.6mb 56f 55f
10:50am 9ft 9s 6s 25 31 mph 987.1mb 56f 54f
9:50am 8ft 8s 6s 25 29 mph 986.4mb 56f 55f
8:50am 7ft 8s 6s 22 27 mph 986.2mb 56f 55f
7:50am 6ft 8s 6s 27 34 mph 986mb 56f 54f